createdAt,value
2023-02-06T00:00:07.759Z,-5.25
2023-02-06T00:03:10.751Z,-5.28
2023-02-06T00:06:13.306Z,-5.30
2023-02-06T00:09:16.232Z,-5.31
2023-02-06T00:12:19.031Z,-5.49
2023-02-06T00:15:21.865Z,-5.62
2023-02-06T00:18:24.472Z,-5.68
2023-02-06T00:21:28.928Z,-5.69
2023-02-06T00:24:31.498Z,-5.71
2023-02-06T00:27:34.410Z,-5.74
2023-02-06T00:30:37.073Z,-5.77
2023-02-06T00:33:40.685Z,-5.77
2023-02-06T00:36:43.331Z,-5.77
2023-02-06T00:39:46.834Z,-5.81
2023-02-06T00:42:49.577Z,-5.81
2023-02-06T00:45:54.015Z,-5.84
2023-02-06T00:48:57.392Z,-6.01
2023-02-06T00:52:00.219Z,-5.88
2023-02-06T00:55:02.991Z,-5.88
2023-02-06T00:58:06.053Z,-5.85
2023-02-06T01:01:08.665Z,-5.87
2023-02-06T01:04:12.542Z,-5.95
2023-02-06T01:07:15.101Z,-5.94
2023-02-06T01:10:18.108Z,-5.92
2023-02-06T01:13:20.987Z,-6.01
2023-02-06T01:16:25.022Z,-6.03
2023-02-06T01:19:28.472Z,-6.07
2023-02-06T01:22:34.063Z,-6.11
2023-02-06T01:25:37.301Z,-6.14
2023-02-06T01:28:42.950Z,-6.13
2023-02-06T01:31:45.536Z,-6.10
2023-02-06T01:34:48.403Z,-6.08
2023-02-06T01:37:51.064Z,-6.13
2023-02-06T01:40:58.033Z,-6.25
2023-02-06T01:44:22.579Z,-6.17
2023-02-06T01:47:25.453Z,-6.15
2023-02-06T01:50:30.979Z,-6.12
2023-02-06T01:53:35.059Z,-6.87
2023-02-06T01:56:43.868Z,-6.14
2023-02-06T01:59:50.795Z,-6.18
2023-02-06T02:02:53.400Z,-6.16
2023-02-06T02:06:01.916Z,-6.14
2023-02-06T02:09:07.427Z,-6.26
2023-02-06T02:12:10.792Z,-6.20
2023-02-06T02:15:13.364Z,-6.23
2023-02-06T02:18:30.221Z,-6.29
2023-02-06T02:22:10.577Z,-6.29
2023-02-06T02:25:35.268Z,-6.28
2023-02-06T02:28:56.859Z,-6.30
2023-02-06T02:32:18.202Z,-6.33
2023-02-06T02:35:35.094Z,-6.33
2023-02-06T02:38:58.655Z,-6.35
2023-02-06T02:42:21.779Z,-6.35
2023-02-06T02:45:31.546Z,-6.34
2023-02-06T02:48:45.743Z,-6.35
2023-02-06T02:51:49.879Z,-6.43
2023-02-06T02:54:52.498Z,-6.50
2023-02-06T02:58:01.323Z,-6.53
2023-02-06T03:01:09.318Z,-6.54
2023-02-06T03:04:19.901Z,-6.54
2023-02-06T03:07:39.681Z,-6.52
2023-02-06T03:11:18.465Z,-6.49
2023-02-06T03:14:29.289Z,-6.52
2023-02-06T03:17:39.346Z,-6.54
2023-02-06T03:20:44.726Z,-6.57
2023-02-06T03:23:49.747Z,-6.66
2023-02-06T03:26:58.628Z,-6.54
2023-02-06T03:30:03.408Z,-6.57
2023-02-06T03:33:08.128Z,-6.51
2023-02-06T03:36:17.134Z,-6.53
2023-02-06T03:39:20.549Z,-6.68
2023-02-06T03:42:24.114Z,-6.42
2023-02-06T03:45:28.921Z,-6.39
2023-02-06T03:48:35.025Z,-6.31
2023-02-06T03:51:42.644Z,-6.31
2023-02-06T03:54:49.793Z,-6.66
2023-02-06T03:58:02.292Z,-6.45
2023-02-06T04:01:06.683Z,-6.59
2023-02-06T04:04:09.637Z,-6.43
2023-02-06T04:07:19.578Z,-6.41
2023-02-06T04:10:25.898Z,-6.41
2023-02-06T04:13:28.833Z,-6.37
2023-02-06T04:16:31.869Z,-6.36
2023-02-06T04:19:34.958Z,-6.34
2023-02-06T04:22:39.248Z,-6.36
2023-02-06T04:25:41.855Z,-6.35
2023-02-06T04:28:44.943Z,-6.34
2023-02-06T04:31:47.615Z,-6.34
2023-02-06T04:34:50.558Z,-6.39
2023-02-06T04:37:53.635Z,-6.34
2023-02-06T04:41:05.108Z,-6.39
2023-02-06T04:44:07.890Z,-6.41
2023-02-06T04:47:11.106Z,-6.38
2023-02-06T04:50:14.181Z,-6.35
2023-02-06T04:53:17.581Z,-6.45
2023-02-06T04:56:20.152Z,-6.30
2023-02-06T04:59:23.149Z,-6.32
2023-02-06T05:02:25.959Z,-6.46
2023-02-06T05:05:28.944Z,-6.34
2023-02-06T05:08:31.711Z,-6.37
2023-02-06T05:11:34.610Z,-6.43
2023-02-06T05:14:37.314Z,-6.40
2023-02-06T05:17:40.175Z,-6.38
2023-02-06T05:20:43.168Z,-6.40
2023-02-06T05:23:46.421Z,-6.38
2023-02-06T05:26:49.338Z,-6.37
2023-02-06T05:29:52.684Z,-6.37
2023-02-06T05:32:55.292Z,-6.29
2023-02-06T05:36:05.523Z,-6.23
2023-02-06T05:39:08.354Z,-6.21
2023-02-06T05:42:11.471Z,-6.21
2023-02-06T05:45:14.030Z,-6.29
2023-02-06T05:48:17.164Z,-6.27
2023-02-06T05:51:19.753Z,-6.28
2023-02-06T05:54:22.852Z,-6.28
2023-02-06T05:57:25.424Z,-6.32
2023-02-06T06:00:28.461Z,-6.32
2023-02-06T06:03:33.412Z,-6.29
2023-02-06T06:06:36.130Z,-5.32
2023-02-06T06:09:39.197Z,-5.12
2023-02-06T06:12:41.696Z,-5.48
2023-02-06T06:15:44.891Z,-5.74
2023-02-06T06:18:47.536Z,-5.94
2023-02-06T06:21:50.706Z,-6.14
2023-02-06T06:24:53.229Z,-6.15
2023-02-06T06:27:56.247Z,-6.28
2023-02-06T06:31:03.434Z,-6.27
2023-02-06T06:34:07.092Z,-6.29
2023-02-06T06:37:09.665Z,-6.33
2023-02-06T06:40:12.633Z,-6.27
2023-02-06T06:43:15.558Z,-6.19
2023-02-06T06:46:18.962Z,-6.19
2023-02-06T06:49:21.765Z,-6.09
2023-02-06T06:52:25.835Z,-6.00
2023-02-06T06:55:28.784Z,-5.88
2023-02-06T06:58:31.787Z,-4.32
2023-02-06T07:01:34.692Z,-4.74
2023-02-06T07:04:38.174Z,-4.96
2023-02-06T07:07:40.700Z,-5.05
2023-02-06T07:10:47.321Z,-5.16
2023-02-06T07:13:49.890Z,-5.29
2023-02-06T07:16:52.893Z,-5.23
2023-02-06T07:19:55.980Z,-5.22
2023-02-06T07:22:59.042Z,-5.14
2023-02-06T07:26:02.397Z,-5.09
2023-02-06T07:29:05.443Z,-5.04
2023-02-06T07:32:08.646Z,-4.98
2023-02-06T07:35:11.540Z,-4.96
2023-02-06T07:38:14.194Z,-4.86
2023-02-06T07:41:18.051Z,-4.76
2023-02-06T07:44:20.750Z,-4.65
2023-02-06T07:47:23.691Z,-4.61
2023-02-06T07:50:26.476Z,-4.74
2023-02-06T07:53:29.385Z,-4.51
2023-02-06T07:56:31.972Z,-4.44
2023-02-06T07:59:34.977Z,-4.36
2023-02-06T08:02:37.923Z,-4.36
2023-02-06T08:05:40.931Z,-4.28
2023-02-06T08:08:44.341Z,-4.23
2023-02-06T08:11:47.223Z,-4.11
2023-02-06T08:14:49.871Z,-4.05
2023-02-06T08:17:52.781Z,-3.99
2023-02-06T08:21:01.451Z,-4.00
2023-02-06T08:24:04.801Z,-3.98
2023-02-06T08:27:07.412Z,-3.93
2023-02-06T08:30:11.939Z,-3.74
2023-02-06T08:33:14.860Z,-3.64
2023-02-06T08:36:19.359Z,-3.52
2023-02-06T08:39:22.018Z,-3.39
2023-02-06T08:42:24.981Z,-3.38
2023-02-06T08:45:27.609Z,-3.13
2023-02-06T08:48:30.552Z,-3.14
2023-02-06T08:51:34.506Z,-3.01
2023-02-06T08:54:38.915Z,-3.04
2023-02-06T08:57:41.572Z,-2.96
2023-02-06T09:00:44.546Z,-2.74
2023-02-06T09:03:47.464Z,-2.74
2023-02-06T09:06:52.159Z,-2.80
2023-02-06T09:09:54.777Z,-2.54
2023-02-06T09:12:58.465Z,-2.60
2023-02-06T09:16:01.170Z,-2.40
2023-02-06T09:19:04.258Z,-2.39
2023-02-06T09:22:07.329Z,-2.19
2023-02-06T09:25:11.310Z,-2.12
2023-02-06T09:28:15.534Z,-1.86
2023-02-06T09:31:18.503Z,-1.76
2023-02-06T09:34:21.318Z,-1.54
2023-02-06T09:37:24.258Z,-1.54
2023-02-06T09:40:28.085Z,-1.44
2023-02-06T09:43:32.171Z,-1.42
2023-02-06T09:46:37.087Z,-1.11
2023-02-06T09:49:45.915Z,-0.89
2023-02-06T09:53:24.915Z,-0.79
2023-02-06T09:56:49.599Z,-0.84
2023-02-06T09:59:57.314Z,-0.52
2023-02-06T10:03:13.780Z,-0.66
2023-02-06T10:06:19.309Z,-0.57
2023-02-06T10:09:37.915Z,-0.30
2023-02-06T10:13:03.762Z,-0.11
2023-02-06T10:16:21.585Z,0.24
2023-02-06T10:19:41.206Z,0.26
2023-02-06T10:22:50.561Z,0.45
2023-02-06T10:26:23.434Z,0.75
2023-02-06T10:29:32.469Z,1.26
2023-02-06T10:32:52.012Z,1.64
2023-02-06T10:36:18.294Z,1.88
2023-02-06T10:39:45.946Z,2.19
2023-02-06T10:42:57.377Z,2.37
2023-02-06T10:46:19.944Z,2.46
2023-02-06T10:49:39.104Z,2.75
2023-02-06T10:52:42.474Z,2.77
2023-02-06T10:55:55.571Z,2.96
2023-02-06T10:59:02.516Z,2.45
2023-02-06T11:02:08.074Z,2.61
2023-02-06T11:05:17.712Z,2.74
2023-02-06T11:08:25.698Z,2.82
2023-02-06T11:11:31.304Z,2.76
2023-02-06T11:14:37.682Z,2.90
2023-02-06T11:17:41.067Z,2.74
2023-02-06T11:20:45.189Z,3.34
2023-02-06T11:24:08.985Z,3.45
2023-02-06T11:27:15.381Z,3.85
2023-02-06T11:30:35.112Z,3.94
2023-02-06T11:33:42.077Z,3.27
2023-02-06T11:36:47.569Z,3.81
2023-02-06T11:39:50.161Z,3.36
2023-02-06T11:43:13.153Z,3.52
2023-02-06T11:46:27.546Z,3.62
2023-02-06T11:49:30.558Z,3.67
2023-02-06T11:52:34.204Z,3.91
2023-02-06T11:55:39.597Z,3.68
2023-02-06T11:58:43.419Z,3.67
2023-02-06T12:01:47.670Z,4.03
2023-02-06T12:04:50.927Z,4.35
2023-02-06T12:08:02.741Z,4.63
2023-02-06T12:11:12.492Z,5.07
2023-02-06T12:14:22.399Z,5.30
2023-02-06T12:17:34.374Z,5.20
2023-02-06T12:20:48.602Z,4.86
2023-02-06T12:24:02.719Z,5.53
2023-02-06T12:27:41.279Z,5.68
2023-02-06T12:30:51.479Z,5.97
2023-02-06T12:33:56.174Z,5.89
2023-02-06T12:37:14.052Z,5.74
2023-02-06T12:40:35.938Z,5.74
2023-02-06T12:43:39.805Z,5.98
2023-02-06T12:46:43.728Z,6.12
2023-02-06T12:50:00.144Z,6.36
2023-02-06T12:53:10.751Z,5.78
2023-02-06T12:56:52.411Z,5.38
2023-02-06T13:00:21.435Z,5.61
2023-02-06T13:03:29.161Z,5.73
2023-02-06T13:06:43.494Z,5.50
2023-02-06T13:10:01.166Z,5.77
2023-02-06T13:13:04.588Z,5.69
2023-02-06T13:16:08.943Z,5.54
2023-02-06T13:19:43.774Z,5.45
2023-02-06T13:22:52.322Z,5.03
2023-02-06T13:25:54.908Z,4.70
2023-02-06T13:28:59.281Z,4.03
2023-02-06T13:32:10.881Z,3.98
2023-02-06T13:35:15.486Z,3.86
2023-02-06T13:38:24.243Z,3.50
2023-02-06T13:41:29.132Z,3.28
2023-02-06T13:44:34.306Z,2.89
2023-02-06T13:47:51.105Z,2.61
2023-02-06T13:51:16.831Z,2.33
2023-02-06T13:54:44.667Z,2.13
2023-02-06T13:57:59.128Z,1.70
2023-02-06T14:01:04.078Z,1.73
2023-02-06T14:04:10.465Z,1.56
2023-02-06T14:07:22.296Z,1.38
2023-02-06T14:10:50.369Z,1.06
2023-02-06T14:14:14.810Z,0.78
2023-02-06T14:17:44.323Z,0.73
2023-02-06T14:21:02.500Z,0.62
2023-02-06T14:24:45.647Z,0.53
2023-02-06T14:27:54.141Z,0.37
2023-02-06T14:31:09.191Z,0.30
2023-02-06T14:34:23.505Z,0.26
2023-02-06T14:38:02.337Z,0.15
2023-02-06T14:41:05.049Z,0.04
2023-02-06T14:44:13.625Z,-0.03
2023-02-06T14:47:25.071Z,-0.10
2023-02-06T14:50:37.258Z,-0.14
2023-02-06T14:53:40.344Z,-0.24
2023-02-06T14:56:43.350Z,-0.29
2023-02-06T14:59:58.175Z,-0.38
2023-02-06T15:03:14.543Z,-0.46
2023-02-06T15:06:35.547Z,-0.56
2023-02-06T15:09:43.917Z,-0.61
2023-02-06T15:12:55.445Z,-0.65
2023-02-06T15:15:58.376Z,-0.82
2023-02-06T15:19:12.566Z,-0.88
2023-02-06T15:22:22.329Z,-0.93
2023-02-06T15:25:53.868Z,-1.04
2023-02-06T15:28:58.452Z,-1.12
2023-02-06T15:32:07.683Z,-1.12
2023-02-06T15:35:21.387Z,-1.22
2023-02-06T15:38:27.850Z,-1.30
2023-02-06T15:41:31.310Z,-0.66
2023-02-06T15:44:35.411Z,-0.53
2023-02-06T15:47:41.399Z,-0.95
2023-02-06T15:51:04.423Z,-1.06
2023-02-06T15:54:16.309Z,-1.30
2023-02-06T15:57:34.481Z,-1.53
2023-02-06T16:00:37.928Z,-1.62
2023-02-06T16:03:41.512Z,-1.72
2023-02-06T16:06:46.153Z,-1.80
2023-02-06T16:10:03.969Z,-1.86
2023-02-06T16:13:11.715Z,-1.93
2023-02-06T16:16:21.937Z,-1.99
2023-02-06T16:19:40.729Z,-2.03
2023-02-06T16:22:43.739Z,-2.06
2023-02-06T16:25:47.708Z,-2.09
2023-02-06T16:28:57.837Z,-2.17
2023-02-06T16:32:08.676Z,-2.23
2023-02-06T16:35:13.545Z,-2.30
2023-02-06T16:38:16.201Z,-2.37
2023-02-06T16:41:33.659Z,-2.40
2023-02-06T16:44:44.848Z,-2.43
2023-02-06T16:47:49.087Z,-2.48
2023-02-06T16:50:51.797Z,-2.54
2023-02-06T16:53:55.891Z,-2.58
2023-02-06T16:57:21.557Z,-2.62
2023-02-06T17:00:31.020Z,-2.65
2023-02-06T17:03:34.868Z,-2.71
2023-02-06T17:06:37.922Z,-2.79
2023-02-06T17:09:41.486Z,-2.81
2023-02-06T17:12:45.195Z,-2.88
2023-02-06T17:15:49.025Z,-2.89
2023-02-06T17:18:52.641Z,-2.91
2023-02-06T17:21:56.039Z,-2.95
2023-02-06T17:24:58.962Z,-2.95
2023-02-06T17:28:01.937Z,-3.01
2023-02-06T17:31:05.407Z,-3.08
2023-02-06T17:34:08.021Z,-3.10
2023-02-06T17:37:20.594Z,-3.14
2023-02-06T17:40:30.012Z,-3.17
2023-02-06T17:43:36.214Z,-3.22
2023-02-06T17:46:39.142Z,-3.24
2023-02-06T17:49:42.044Z,-3.28
2023-02-06T17:52:44.749Z,-3.29
2023-02-06T17:55:47.649Z,-3.33
2023-02-06T17:58:50.257Z,-3.36
2023-02-06T18:01:53.784Z,-3.45
2023-02-06T18:04:59.952Z,-3.58
2023-02-06T18:08:02.547Z,-3.54
2023-02-06T18:11:11.534Z,-3.58
2023-02-06T18:14:14.434Z,-3.68
2023-02-06T18:17:18.861Z,-3.64
2023-02-06T18:20:21.784Z,-2.23
2023-02-06T18:23:25.046Z,-3.05
2023-02-06T18:26:27.885Z,-3.44
2023-02-06T18:29:47.344Z,-3.61
2023-02-06T18:32:51.672Z,-3.52
2023-02-06T18:35:54.811Z,-3.61
2023-02-06T18:38:58.312Z,-3.74
2023-02-06T18:42:20.170Z,-3.81
2023-02-06T18:45:25.371Z,-3.85
2023-02-06T18:48:28.588Z,-3.90
2023-02-06T18:51:35.759Z,-3.92
2023-02-06T18:54:39.651Z,-4.03
2023-02-06T18:57:42.690Z,-1.44
2023-02-06T19:00:47.243Z,-1.90
2023-02-06T19:03:51.045Z,-2.68
2023-02-06T19:06:54.800Z,-3.05
2023-02-06T19:10:02.204Z,-3.41
2023-02-06T19:13:05.813Z,-3.65
2023-02-06T19:16:14.072Z,-3.81
2023-02-06T19:19:17.560Z,-3.92
2023-02-06T19:22:20.399Z,-4.14
2023-02-06T19:25:24.015Z,-4.04
2023-02-06T19:28:26.922Z,-4.07
2023-02-06T19:31:31.988Z,-4.13
2023-02-06T19:34:37.084Z,-4.18
2023-02-06T19:37:40.288Z,-4.25
2023-02-06T19:40:44.962Z,-4.32
2023-02-06T19:43:48.496Z,-4.32
2023-02-06T19:46:51.085Z,-4.31
2023-02-06T19:49:54.201Z,-4.33
2023-02-06T19:52:57.259Z,-4.36
2023-02-06T19:56:01.772Z,-4.38
2023-02-06T19:59:23.505Z,-4.95
2023-02-06T20:02:26.582Z,-4.40
2023-02-06T20:05:33.285Z,-4.40
2023-02-06T20:08:36.816Z,-4.36
2023-02-06T20:11:40.666Z,-4.44
2023-02-06T20:14:43.697Z,-4.42
2023-02-06T20:17:46.911Z,-4.47
2023-02-06T20:20:51.793Z,-4.53
2023-02-06T20:23:57.995Z,-4.56
2023-02-06T20:27:04.368Z,-4.60
2023-02-06T20:30:09.201Z,-4.57
2023-02-06T20:33:12.326Z,-4.55
2023-02-06T20:36:19.003Z,-4.63
2023-02-06T20:39:22.196Z,-4.71
2023-02-06T20:42:27.316Z,-4.75
2023-02-06T20:45:30.012Z,-4.78
2023-02-06T20:48:35.093Z,-4.80
2023-02-06T20:51:37.653Z,-4.88
2023-02-06T20:54:40.706Z,-4.90
2023-02-06T20:57:43.580Z,-4.89
2023-02-06T21:00:46.942Z,-4.93
2023-02-06T21:03:51.342Z,-4.99
2023-02-06T21:06:55.897Z,-4.98
2023-02-06T21:09:59.014Z,-5.00
2023-02-06T21:13:02.411Z,-5.09
2023-02-06T21:16:05.398Z,-5.15
2023-02-06T21:19:10.352Z,-5.20
2023-02-06T21:22:13.159Z,-5.22
2023-02-06T21:25:16.112Z,-5.25
2023-02-06T21:28:19.887Z,-5.26
2023-02-06T21:31:32.987Z,-5.28
2023-02-06T21:34:36.830Z,-5.31
2023-02-06T21:37:39.844Z,-5.31
2023-02-06T21:40:42.765Z,-5.31
2023-02-06T21:43:46.097Z,-5.52
2023-02-06T21:46:48.879Z,-5.33
2023-02-06T21:49:51.756Z,-5.35
2023-02-06T21:52:54.394Z,-5.41
2023-02-06T21:55:59.131Z,-5.59
2023-02-06T21:59:01.791Z,-5.46
2023-02-06T22:02:05.258Z,-5.48
2023-02-06T22:05:08.340Z,-5.47
2023-02-06T22:08:11.013Z,-5.49
2023-02-06T22:11:40.335Z,-5.49
2023-02-06T22:14:42.966Z,-5.53
2023-02-06T22:17:45.852Z,-5.53
2023-02-06T22:20:48.455Z,-5.56
2023-02-06T22:23:52.389Z,-5.56
2023-02-06T22:26:54.916Z,-5.61
2023-02-06T22:29:57.890Z,-5.64
2023-02-06T22:33:00.552Z,-5.64
2023-02-06T22:36:05.571Z,-5.65
2023-02-06T22:39:12.476Z,-5.81
2023-02-06T22:42:15.463Z,-5.68
2023-02-06T22:45:18.100Z,-5.72
2023-02-06T22:48:21.273Z,-5.73
2023-02-06T22:51:24.558Z,-5.75
2023-02-06T22:54:27.538Z,-5.74
2023-02-06T22:57:30.559Z,-5.73
2023-02-06T23:00:33.638Z,-5.75
2023-02-06T23:03:36.842Z,-5.75
2023-02-06T23:06:40.433Z,-5.70
2023-02-06T23:09:43.093Z,-5.69
2023-02-06T23:12:46.004Z,-5.64
2023-02-06T23:15:48.675Z,-5.61
2023-02-06T23:18:51.911Z,-5.58
2023-02-06T23:21:54.950Z,-5.62
2023-02-06T23:24:58.028Z,-5.64
2023-02-06T23:28:00.637Z,-5.67
2023-02-06T23:31:03.736Z,-5.66
2023-02-06T23:34:06.319Z,-5.68
2023-02-06T23:37:09.258Z,-5.65
2023-02-06T23:40:11.940Z,-5.58
2023-02-06T23:43:15.084Z,-5.72
2023-02-06T23:46:20.002Z,-5.69
2023-02-06T23:49:23.149Z,-5.68
2023-02-06T23:52:26.922Z,-5.64
2023-02-06T23:55:30.640Z,-5.71
2023-02-06T23:58:33.157Z,-5.70
